createdAt,value
2018-02-11T04:38:56.115Z,18.32
2018-02-11T04:41:23.549Z,18.48
2018-02-11T04:43:50.917Z,18.41
2018-02-11T04:46:18.311Z,18.36
2018-02-11T04:48:45.726Z,17.96
2018-02-11T04:51:13.053Z,18.46
2018-02-11T04:53:40.386Z,18.48
2018-02-11T04:56:07.767Z,18.42
2018-02-11T04:58:35.112Z,18.38
2018-02-11T05:01:02.474Z,18.43
2018-02-11T05:03:29.820Z,18.31
2018-02-11T05:05:57.166Z,18.47
2018-02-11T05:08:24.498Z,18.38
2018-02-11T05:10:51.842Z,18.41
2018-02-11T05:13:19.189Z,18.46
2018-02-11T05:15:46.520Z,18.36
2018-02-11T05:18:13.886Z,18.41
2018-02-11T05:20:41.249Z,18.42
2018-02-11T05:23:16.147Z,18.46
2018-02-11T05:25:43.524Z,18.44
2018-02-11T05:28:10.887Z,18.40
2018-02-11T05:30:38.213Z,18.36
2018-02-11T05:33:05.597Z,18.43
2018-02-11T05:35:32.933Z,18.47
2018-02-11T05:38:00.315Z,18.13
2018-02-11T05:40:27.656Z,18.34
2018-02-11T05:42:55.042Z,18.41
2018-02-11T05:45:22.411Z,18.43
2018-02-11T05:47:49.758Z,18.29
2018-02-11T05:50:17.093Z,18.41
2018-02-11T05:52:44.511Z,18.40
2018-02-11T05:55:11.879Z,18.39
2018-02-11T05:57:39.292Z,18.34
2018-02-11T06:00:06.626Z,18.41
2018-02-11T06:02:33.977Z,18.41
2018-02-11T06:05:01.324Z,18.31
2018-02-11T06:07:28.662Z,18.31
2018-02-11T06:09:56.030Z,18.41
2018-02-11T06:12:23.373Z,18.42
2018-02-11T06:14:50.715Z,18.43
2018-02-11T06:17:18.075Z,18.44
2018-02-11T06:19:45.421Z,18.31
2018-02-11T06:22:12.798Z,18.46
2018-02-11T06:24:40.138Z,18.28
2018-02-11T06:27:07.490Z,18.29
2018-02-11T06:29:34.837Z,18.45
2018-02-11T06:32:02.166Z,18.40
2018-02-11T06:34:29.549Z,18.33
2018-02-11T06:36:56.886Z,18.36
2018-02-11T06:39:24.213Z,18.45
2018-02-11T06:41:51.542Z,18.28
2018-02-11T06:44:18.909Z,18.33
2018-02-11T06:46:46.243Z,18.45
2018-02-11T06:49:13.582Z,18.42
2018-02-11T06:51:40.934Z,18.44
2018-02-11T06:54:08.311Z,18.43
2018-02-11T06:56:35.649Z,18.38
2018-02-11T06:59:03.018Z,18.36
2018-02-11T07:01:30.351Z,18.25
2018-02-11T07:03:57.682Z,18.46
2018-02-11T07:06:25.011Z,18.27
2018-02-11T07:08:52.384Z,18.47
2018-02-11T07:11:19.739Z,18.38
2018-02-11T07:13:47.142Z,18.42
2018-02-11T07:16:14.472Z,18.45
2018-02-11T07:18:41.818Z,18.26
2018-02-11T07:21:09.159Z,18.48
2018-02-11T07:23:36.494Z,18.49
2018-02-11T07:26:03.867Z,18.48
2018-02-11T07:28:31.199Z,18.32
2018-02-11T07:30:58.590Z,18.47
2018-02-11T07:33:25.921Z,18.34
2018-02-11T07:35:53.259Z,18.47
2018-02-11T07:38:20.634Z,18.41
2018-02-11T07:40:48.013Z,18.43
2018-02-11T07:43:15.413Z,18.33
2018-02-11T07:45:42.763Z,18.48
2018-02-11T07:48:10.106Z,18.36
2018-02-11T07:50:37.485Z,18.49
2018-02-11T07:53:04.813Z,18.48
2018-02-11T07:55:32.150Z,18.45
2018-02-11T07:57:59.525Z,18.47
2018-02-11T08:00:26.870Z,18.50
2018-02-11T08:02:54.242Z,18.51
2018-02-11T08:05:21.641Z,18.52
2018-02-11T08:07:48.982Z,18.51
2018-02-11T08:10:16.318Z,18.44
2018-02-11T08:12:43.704Z,18.46
2018-02-11T08:15:11.048Z,18.54
2018-02-11T08:17:38.401Z,18.55
2018-02-11T08:20:05.730Z,18.52
2018-02-11T08:22:33.111Z,18.52
2018-02-11T08:25:00.471Z,18.54
2018-02-11T08:27:27.811Z,18.55
2018-02-11T08:29:55.187Z,18.56
2018-02-11T08:32:22.534Z,18.49
2018-02-11T08:34:49.945Z,18.51
2018-02-11T08:37:17.288Z,18.51
2018-02-11T08:39:44.635Z,18.48
2018-02-11T08:42:11.974Z,18.52
2018-02-11T08:44:39.358Z,18.37
2018-02-11T08:47:06.734Z,18.21
2018-02-11T08:49:34.061Z,18.53
2018-02-11T08:52:01.412Z,18.45
2018-02-11T08:54:28.802Z,18.58
2018-02-11T08:56:56.146Z,18.41
2018-02-11T08:59:23.523Z,18.49
2018-02-11T09:01:50.857Z,18.48
2018-02-11T09:04:18.194Z,18.59
2018-02-11T09:06:45.578Z,18.57
2018-02-11T09:09:12.914Z,18.61
2018-02-11T09:11:40.257Z,18.63
2018-02-11T09:14:07.593Z,18.47
2018-02-11T09:16:34.926Z,18.59
2018-02-11T09:19:02.270Z,18.54
2018-02-11T09:21:29.618Z,18.49
2018-02-11T09:23:56.998Z,18.65
2018-02-11T09:26:24.354Z,18.65
2018-02-11T09:28:51.738Z,18.60
2018-02-11T09:31:19.093Z,18.65
2018-02-11T09:33:46.431Z,18.61
2018-02-11T09:36:13.801Z,18.64
2018-02-11T09:38:41.174Z,18.63
2018-02-11T09:41:08.563Z,18.48
2018-02-11T09:43:35.898Z,18.61
2018-02-11T09:46:03.238Z,18.49
2018-02-11T09:48:30.613Z,18.65
2018-02-11T09:50:57.977Z,18.56
2018-02-11T09:53:25.316Z,18.51
2018-02-11T09:55:52.710Z,18.51
2018-02-11T09:58:20.041Z,18.57
2018-02-11T10:00:47.422Z,18.64
2018-02-11T10:03:14.750Z,18.52
2018-02-11T10:05:42.126Z,18.50
2018-02-11T10:08:09.466Z,18.62
2018-02-11T10:10:36.815Z,18.65
2018-02-11T10:13:04.178Z,18.64
2018-02-11T10:15:31.528Z,18.56
2018-02-11T10:17:58.919Z,18.57
2018-02-11T10:20:26.294Z,18.62
2018-02-11T10:22:53.655Z,18.62
2018-02-11T10:25:20.992Z,18.63
2018-02-11T10:27:48.375Z,18.61
2018-02-11T10:30:15.748Z,18.59
2018-02-11T10:32:43.113Z,18.60
2018-02-11T10:35:10.457Z,18.58
2018-02-11T10:37:37.846Z,18.50
2018-02-11T10:40:05.184Z,18.61
2018-02-11T10:42:32.531Z,18.57
2018-02-11T10:44:59.892Z,18.56
2018-02-11T10:47:27.229Z,18.59
2018-02-11T10:49:54.563Z,18.57
2018-02-11T10:52:21.934Z,18.51
2018-02-11T10:54:49.318Z,18.57
2018-02-11T10:57:16.650Z,18.39
2018-02-11T10:59:44.014Z,18.62
2018-02-11T11:02:11.354Z,18.57
2018-02-11T11:04:38.697Z,18.51
2018-02-11T11:07:06.056Z,18.51
2018-02-11T11:09:33.395Z,18.62
2018-02-11T11:12:00.726Z,18.58
2018-02-11T11:14:28.067Z,18.54
2018-02-11T11:16:55.416Z,18.52
2018-02-11T11:19:22.798Z,18.50
2018-02-11T11:21:50.182Z,18.66
2018-02-11T11:24:17.524Z,18.63
2018-02-11T11:26:44.858Z,18.63
2018-02-11T11:29:12.245Z,17.79
2018-02-11T11:31:39.642Z,18.57
2018-02-11T11:34:06.985Z,18.62
2018-02-11T11:36:34.321Z,18.61
2018-02-11T11:41:35.026Z,18.35
2018-02-11T11:44:02.386Z,18.43
2018-02-11T11:46:29.746Z,18.50
2018-02-11T11:48:57.080Z,18.60
2018-02-11T11:51:24.422Z,18.56
2018-02-11T11:53:51.803Z,18.55
2018-02-11T11:56:19.190Z,18.38
2018-02-11T11:58:46.580Z,18.60
2018-02-11T12:01:13.914Z,18.60
2018-02-11T12:03:41.243Z,18.58
2018-02-11T12:06:08.611Z,18.47
2018-02-11T12:08:35.967Z,18.48
2018-02-11T12:11:03.297Z,18.56
2018-02-11T12:13:30.670Z,18.47
2018-02-11T12:15:58.067Z,18.48
2018-02-11T12:18:25.399Z,18.57
2018-02-11T12:20:52.745Z,18.51
2018-02-11T12:23:20.082Z,18.57
2018-02-11T12:25:47.430Z,18.55
2018-02-11T12:28:14.772Z,18.51
2018-02-11T12:30:42.164Z,18.56
2018-02-11T12:33:09.555Z,18.50
2018-02-11T12:35:36.962Z,18.46
2018-02-11T12:38:04.345Z,18.51
2018-02-11T12:40:31.680Z,18.43
2018-02-11T12:42:59.013Z,18.47
2018-02-11T12:45:26.358Z,18.50
2018-02-11T12:47:53.733Z,18.55
2018-02-11T12:50:21.069Z,18.52
2018-02-11T12:52:48.450Z,18.52
2018-02-11T12:55:15.792Z,18.37
2018-02-11T12:57:43.186Z,18.44
2018-02-11T13:00:10.530Z,18.54
2018-02-11T13:02:37.907Z,18.53
2018-02-11T13:05:06.329Z,18.50
2018-02-11T13:07:33.670Z,18.51
2018-02-11T13:10:01.411Z,18.42
2018-02-11T13:12:28.418Z,18.52
2018-02-11T13:14:55.755Z,18.48
2018-02-11T13:17:23.110Z,18.48
2018-02-11T13:19:50.495Z,18.49
2018-02-11T13:22:17.873Z,18.53
2018-02-11T13:24:45.261Z,18.50
2018-02-11T13:27:12.593Z,18.35
2018-02-11T13:29:40.014Z,18.41
2018-02-11T13:32:07.362Z,18.50
2018-02-11T13:34:34.738Z,18.44
2018-02-11T13:37:02.078Z,18.42
2018-02-11T13:39:29.478Z,18.44
2018-02-11T13:41:56.848Z,18.38
2018-02-11T13:44:24.185Z,18.43
2018-02-11T13:46:51.538Z,18.49
2018-02-11T13:49:18.918Z,18.33
2018-02-11T13:51:46.295Z,18.45
2018-02-11T13:54:13.634Z,18.42
2018-02-11T13:56:40.967Z,18.45
2018-02-11T13:59:08.344Z,18.35
2018-02-11T14:01:35.721Z,18.45
2018-02-11T14:04:03.055Z,18.45
2018-02-11T14:06:30.429Z,18.38
2018-02-11T14:08:57.800Z,18.30
2018-02-11T14:11:25.130Z,18.42
2018-02-11T14:13:52.510Z,18.46
2018-02-11T14:16:19.935Z,18.40
2018-02-11T14:18:47.278Z,18.38
2018-02-11T14:21:14.667Z,18.44
2018-02-11T14:23:42.050Z,18.32
2018-02-11T14:26:09.394Z,18.41
2018-02-11T14:28:36.769Z,18.30
2018-02-11T14:31:04.142Z,18.45
2018-02-11T14:33:31.474Z,18.40
2018-02-11T14:35:58.858Z,18.23
2018-02-11T14:38:26.239Z,18.30
2018-02-11T14:40:53.646Z,18.39
2018-02-11T14:43:21.001Z,18.40
2018-02-11T14:45:48.339Z,18.40
2018-02-11T14:48:15.691Z,18.31
2018-02-11T14:50:43.048Z,18.39
2018-02-11T14:53:10.386Z,18.33
2018-02-11T14:55:37.767Z,18.36
2018-02-11T14:58:05.141Z,18.23
2018-02-11T15:00:32.478Z,18.37
2018-02-11T15:02:59.818Z,18.27
2018-02-11T15:05:27.173Z,18.33
2018-02-11T15:07:54.511Z,18.40
2018-02-11T15:10:21.853Z,18.37
2018-02-11T15:12:49.246Z,18.16
2018-02-11T15:15:16.638Z,18.33
2018-02-11T15:17:43.969Z,18.33
2018-02-11T15:20:11.322Z,18.34
2018-02-11T15:22:38.658Z,18.32
2018-02-11T15:25:06.033Z,18.26
2018-02-11T15:27:33.377Z,18.13
2018-02-11T15:30:00.710Z,18.21
2018-02-11T15:32:28.092Z,18.31
2018-02-11T15:34:55.445Z,18.26
2018-02-11T15:37:22.795Z,18.32
2018-02-11T15:39:50.150Z,18.14
2018-02-11T15:42:17.556Z,18.25
2018-02-11T15:44:44.901Z,18.18
2018-02-11T15:47:12.233Z,18.06
2018-02-11T15:49:39.582Z,18.29
2018-02-11T15:52:06.971Z,18.16
2018-02-11T15:54:34.314Z,18.21
2018-02-11T15:57:01.653Z,18.23
2018-02-11T15:59:28.992Z,18.29
2018-02-11T16:01:56.366Z,18.28
2018-02-11T16:04:23.705Z,18.26
2018-02-11T16:06:51.085Z,18.23
2018-02-11T16:09:18.433Z,18.25
2018-02-11T16:11:45.817Z,18.10
2018-02-11T16:14:13.162Z,18.25
2018-02-11T16:16:40.498Z,18.25
2018-02-11T16:19:07.840Z,18.21
2018-02-11T16:21:35.189Z,18.27
2018-02-11T16:24:02.597Z,18.02
2018-02-11T16:26:29.922Z,17.94
2018-02-11T16:28:57.255Z,18.24
2018-02-11T16:31:24.590Z,18.18
2018-02-11T16:33:51.966Z,18.18
2018-02-11T16:36:19.357Z,18.21
2018-02-11T16:38:46.710Z,18.16
2018-02-11T16:41:14.066Z,18.09
2018-02-11T16:43:41.442Z,18.01
2018-02-11T16:46:08.780Z,18.21
2018-02-11T16:48:36.127Z,18.16
2018-02-11T16:51:03.457Z,18.19
2018-02-11T16:53:30.839Z,17.89
2018-02-11T16:55:58.187Z,18.14
2018-02-11T16:58:25.573Z,17.97
2018-02-11T17:00:52.910Z,18.19
2018-02-11T17:03:20.315Z,18.14
2018-02-11T17:05:47.775Z,18.20
2018-02-11T17:08:15.134Z,18.18
2018-02-11T17:10:42.551Z,18.18
2018-02-11T17:13:09.895Z,18.07
2018-02-11T17:15:37.235Z,18.19
2018-02-11T17:18:04.615Z,18.05
2018-02-11T17:20:31.977Z,18.17
2018-02-11T17:22:59.352Z,18.06
2018-02-11T17:25:26.737Z,18.11
2018-02-11T17:27:54.131Z,18.15
2018-02-11T17:30:21.467Z,18.07
2018-02-11T17:32:48.810Z,18.16
2018-02-11T17:35:16.176Z,18.04
2018-02-11T17:37:43.557Z,18.07
2018-02-11T17:40:10.958Z,17.94
2018-02-11T17:42:38.302Z,18.15
2018-02-11T17:45:05.645Z,18.02
2018-02-11T17:47:32.983Z,18.10
2018-02-11T17:50:00.380Z,18.07
2018-02-11T17:52:27.748Z,18.07
2018-02-11T17:54:55.090Z,18.10
2018-02-11T17:57:22.431Z,18.08
2018-02-11T17:59:49.785Z,18.05
2018-02-11T18:02:17.181Z,18.14
2018-02-11T18:04:44.524Z,18.12
2018-02-11T18:07:11.899Z,18.13
2018-02-11T18:09:39.292Z,18.08
2018-02-11T18:12:06.645Z,18.16
2018-02-11T18:14:33.989Z,18.06
2018-02-11T18:17:01.326Z,18.09
2018-02-11T18:19:28.667Z,17.83
2018-02-11T18:21:56.046Z,18.09
2018-02-11T18:24:23.418Z,18.11
2018-02-11T18:26:50.797Z,17.99
2018-02-11T18:29:18.171Z,18.04
2018-02-11T18:31:45.507Z,18.09
2018-02-11T18:34:12.889Z,17.94
2018-02-11T18:36:40.261Z,18.08
2018-02-11T18:39:07.605Z,17.99
2018-02-11T18:41:34.986Z,18.02
2018-02-11T18:44:02.326Z,18.03
2018-02-11T18:46:29.710Z,18.06
2018-02-11T18:48:57.052Z,18.08
2018-02-11T18:51:24.398Z,18.07
2018-02-11T18:53:51.736Z,17.94
2018-02-11T18:56:19.150Z,18.07
2018-02-11T18:58:46.499Z,18.06
2018-02-11T19:01:13.844Z,17.98
2018-02-11T19:03:41.190Z,18.08
2018-02-11T19:06:08.621Z,18.06
2018-02-11T19:08:35.945Z,18.02
2018-02-11T19:11:03.330Z,18.09
2018-02-11T19:13:30.681Z,18.08
2018-02-11T19:15:58.072Z,18.04
2018-02-11T19:18:25.419Z,17.99
2018-02-11T19:20:52.758Z,17.97
2018-02-11T19:23:20.103Z,18.07
2018-02-11T19:25:47.442Z,17.95
2018-02-11T19:28:14.781Z,18.06
2018-02-11T19:30:42.131Z,18.02
2018-02-11T19:33:09.489Z,18.00
2018-02-11T19:35:36.844Z,17.93
2018-02-11T19:38:04.183Z,17.94
2018-02-11T19:40:31.520Z,18.08
2018-02-11T19:42:58.895Z,17.99
2018-02-11T19:45:26.251Z,18.05
2018-02-11T19:47:53.630Z,18.06
2018-02-11T19:50:21.027Z,17.89
2018-02-11T19:52:48.389Z,17.98
2018-02-11T19:55:15.744Z,17.94
2018-02-11T19:57:43.202Z,18.03
2018-02-11T20:00:10.549Z,17.89
2018-02-11T20:02:37.885Z,17.99
2018-02-11T20:05:05.226Z,18.01
2018-02-11T20:07:32.569Z,18.04
2018-02-11T20:09:59.941Z,18.02
2018-02-11T20:12:27.345Z,18.03
2018-02-11T20:14:54.682Z,17.97
2018-02-11T20:17:22.024Z,17.98
2018-02-11T20:19:49.426Z,17.71
2018-02-11T20:22:16.794Z,17.99
2018-02-11T20:24:44.184Z,18.02
2018-02-11T20:27:11.542Z,17.89
2018-02-11T20:29:38.881Z,17.86
2018-02-11T20:32:06.219Z,17.80
2018-02-11T20:34:33.567Z,18.00
2018-02-11T20:37:00.902Z,17.55
2018-02-11T20:39:28.260Z,18.02
2018-02-11T20:41:55.623Z,17.93
2018-02-11T20:44:22.970Z,17.92
2018-02-11T20:46:50.319Z,17.99
2018-02-11T20:49:17.667Z,18.00
2018-02-11T20:51:45.051Z,17.99
2018-02-11T20:54:12.400Z,17.98
2018-02-11T20:56:39.735Z,17.93
2018-02-11T20:59:07.078Z,17.93
2018-02-11T21:01:34.409Z,18.01
2018-02-11T21:04:01.751Z,17.81
2018-02-11T21:06:29.081Z,17.87
2018-02-11T21:08:56.430Z,17.87
2018-02-11T21:11:23.780Z,17.77
2018-02-11T21:13:51.156Z,17.88
2018-02-11T21:16:18.540Z,17.72
2018-02-11T21:18:45.880Z,17.63
2018-02-11T21:21:13.253Z,17.93
2018-02-11T21:23:40.625Z,17.99
2018-02-11T21:26:07.966Z,17.76
2018-02-11T21:28:35.337Z,17.97
2018-02-11T21:31:02.678Z,17.91
2018-02-11T21:33:30.023Z,17.87
2018-02-11T21:35:57.358Z,17.92
2018-02-11T21:38:24.697Z,17.96
2018-02-11T21:40:52.078Z,17.81
2018-02-11T21:43:19.437Z,17.95
2018-02-11T21:45:46.874Z,17.89
2018-02-11T21:48:14.205Z,17.87
2018-02-11T21:50:41.543Z,17.97
2018-02-11T21:53:08.896Z,17.93
2018-02-11T21:55:36.261Z,17.94
2018-02-11T21:58:03.594Z,17.94
2018-02-11T22:00:30.926Z,17.89
2018-02-11T22:02:58.264Z,17.89
2018-02-11T22:05:25.650Z,17.96
2018-02-11T22:07:53.053Z,17.92
2018-02-11T22:10:20.418Z,17.93
2018-02-11T22:12:47.750Z,17.91
2018-02-11T22:15:15.133Z,17.74
2018-02-11T22:17:42.496Z,17.88
2018-02-11T22:20:09.841Z,17.82
2018-02-11T22:22:37.235Z,17.85
2018-02-11T22:25:04.569Z,17.75
2018-02-11T22:27:31.935Z,17.88
2018-02-11T22:29:59.304Z,17.78
2018-02-11T22:32:26.640Z,17.80
2018-02-11T22:34:54.020Z,17.85
2018-02-11T22:37:21.358Z,17.70
2018-02-11T22:39:48.762Z,17.80
2018-02-11T22:42:16.093Z,17.91
2018-02-11T22:44:43.469Z,17.84
2018-02-11T22:47:10.802Z,17.74
2018-02-11T22:49:38.128Z,17.88
2018-02-11T22:52:05.591Z,17.90
2018-02-11T22:54:32.933Z,17.86
2018-02-11T22:57:00.270Z,17.86
2018-02-11T22:59:27.633Z,17.90
2018-02-11T23:01:54.969Z,17.85
2018-02-11T23:04:22.306Z,17.92
2018-02-11T23:06:49.673Z,17.87
2018-02-11T23:09:17.049Z,17.89
2018-02-11T23:11:44.426Z,17.90
2018-02-11T23:14:11.834Z,17.73
2018-02-11T23:16:39.162Z,17.83
2018-02-11T23:19:06.493Z,17.68
2018-02-11T23:21:33.893Z,17.87
2018-02-11T23:24:01.227Z,17.83
2018-02-11T23:26:28.573Z,17.84
2018-02-11T23:28:55.917Z,17.89
2018-02-11T23:31:23.279Z,17.87
2018-02-11T23:33:50.680Z,17.86
2018-02-11T23:36:18.082Z,17.81
2018-02-11T23:38:45.414Z,17.86
2018-02-11T23:41:12.747Z,17.66
2018-02-11T23:43:40.085Z,17.87
2018-02-11T23:46:07.482Z,17.88
2018-02-11T23:48:34.860Z,17.83
2018-02-11T23:51:02.233Z,17.56
2018-02-11T23:53:29.622Z,17.67
2018-02-11T23:55:56.965Z,17.77
2018-02-11T23:58:24.294Z,17.87
